createdAt,value
2022-10-26T00:01:13.641Z,11.60
2022-10-26T00:03:41.790Z,11.60
2022-10-26T00:06:16.935Z,11.60
2022-10-26T00:08:44.345Z,11.60
2022-10-26T00:11:12.345Z,11.70
2022-10-26T00:13:40.345Z,11.70
2022-10-26T00:16:16.378Z,11.70
2022-10-26T00:18:43.700Z,11.70
2022-10-26T00:21:11.490Z,11.70
2022-10-26T00:23:38.430Z,11.70
2022-10-26T00:26:06.042Z,11.70
2022-10-26T00:28:32.972Z,11.70
2022-10-26T00:31:04.710Z,11.80
2022-10-26T00:33:32.496Z,11.80
2022-10-26T00:35:59.297Z,11.80
2022-10-26T00:38:25.991Z,11.80
2022-10-26T00:40:52.663Z,11.80
2022-10-26T00:43:22.105Z,11.90
2022-10-26T00:45:51.752Z,11.90
2022-10-26T00:48:26.454Z,11.90
2022-10-26T00:50:54.183Z,12.00
2022-10-26T00:53:21.208Z,12.00
2022-10-26T00:55:52.492Z,12.00
2022-10-26T00:58:21.399Z,12.10
2022-10-26T01:00:48.930Z,12.10
2022-10-26T01:03:17.071Z,12.10
2022-10-26T01:05:46.292Z,12.20
2022-10-26T01:08:14.315Z,12.20
2022-10-26T01:10:42.905Z,12.30
2022-10-26T01:13:10.642Z,12.20
2022-10-26T01:15:52.431Z,12.10
2022-10-26T01:18:37.826Z,12.10
2022-10-26T01:21:30.536Z,12.10
2022-10-26T01:24:21.897Z,12.10
2022-10-26T01:26:57.495Z,12.10
2022-10-26T01:29:46.311Z,12.10
2022-10-26T01:32:47.810Z,12.10
2022-10-26T01:35:16.759Z,12.10
2022-10-26T01:37:54.857Z,12.10
2022-10-26T01:41:02.035Z,12.10
2022-10-26T01:43:33.703Z,12.10
2022-10-26T01:46:01.986Z,12.00
2022-10-26T01:48:30.257Z,12.10
2022-10-26T01:50:58.207Z,12.10
2022-10-26T01:53:27.104Z,12.10
2022-10-26T01:55:55.278Z,12.10
2022-10-26T01:59:00.213Z,12.10
2022-10-26T02:01:42.854Z,12.10
2022-10-26T02:04:16.877Z,12.10
2022-10-26T02:07:13.582Z,12.10
2022-10-26T02:09:54.871Z,12.10
2022-10-26T02:12:38.716Z,12.10
2022-10-26T02:15:22.457Z,12.10
2022-10-26T02:18:14.067Z,12.10
2022-10-26T02:20:46.396Z,12.10
2022-10-26T02:23:16.461Z,12.10
2022-10-26T02:25:50.176Z,12.10
2022-10-26T02:28:21.325Z,12.10
2022-10-26T02:30:50.779Z,12.10
2022-10-26T02:33:19.531Z,12.10
2022-10-26T02:35:50.360Z,12.10
2022-10-26T02:38:19.923Z,12.20
2022-10-26T02:40:50.474Z,12.20
2022-10-26T02:43:22.149Z,12.20
2022-10-26T02:45:56.551Z,12.20
2022-10-26T02:48:23.940Z,12.20
2022-10-26T02:51:17.155Z,12.20
2022-10-26T02:53:55.796Z,12.20
2022-10-26T02:56:28.569Z,12.10
2022-10-26T02:58:59.915Z,12.10
2022-10-26T03:01:28.649Z,12.10
2022-10-26T03:03:59.580Z,12.10
2022-10-26T03:06:26.566Z,12.10
2022-10-26T03:08:53.434Z,12.10
2022-10-26T03:11:20.098Z,12.10
2022-10-26T03:13:46.807Z,12.10
2022-10-26T03:16:13.431Z,12.10
2022-10-26T03:18:40.138Z,12.10
2022-10-26T03:21:06.859Z,12.10
2022-10-26T03:23:33.571Z,12.10
2022-10-26T03:26:00.470Z,12.10
2022-10-26T03:28:27.288Z,12.10
2022-10-26T03:30:53.912Z,12.10
2022-10-26T03:33:24.356Z,12.10
2022-10-26T03:35:57.173Z,12.10
2022-10-26T03:38:24.156Z,12.10
2022-10-26T03:40:51.024Z,12.10
2022-10-26T03:43:17.703Z,12.10
2022-10-26T03:45:44.335Z,12.20
2022-10-26T03:48:11.606Z,12.10
2022-10-26T03:50:38.589Z,12.20
2022-10-26T03:53:05.890Z,12.10
2022-10-26T03:55:32.603Z,12.20
2022-10-26T03:57:59.253Z,12.10
2022-10-26T04:00:26.066Z,12.20
2022-10-26T04:02:57.770Z,12.10
2022-10-26T04:05:26.290Z,12.10
2022-10-26T04:07:58.047Z,12.10
2022-10-26T04:10:26.296Z,12.10
2022-10-26T04:12:56.371Z,12.10
2022-10-26T04:15:23.600Z,12.10
2022-10-26T04:17:56.991Z,12.10
2022-10-26T04:20:24.140Z,12.10
2022-10-26T04:23:01.571Z,12.00
2022-10-26T04:25:32.650Z,12.00
2022-10-26T04:28:01.685Z,12.10
2022-10-26T04:30:28.768Z,12.10
2022-10-26T04:32:55.528Z,12.00
2022-10-26T04:35:22.275Z,12.00
2022-10-26T04:37:48.914Z,12.00
2022-10-26T04:40:15.724Z,12.00
2022-10-26T04:42:47.280Z,11.90
2022-10-26T04:45:16.040Z,12.00
2022-10-26T04:47:43.195Z,11.90
2022-10-26T04:50:12.304Z,11.90
2022-10-26T04:52:43.929Z,12.00
2022-10-26T04:55:10.662Z,12.00
2022-10-26T04:57:37.431Z,11.90
2022-10-26T05:00:05.320Z,11.90
2022-10-26T05:02:32.187Z,11.90
2022-10-26T05:04:59.072Z,11.90
2022-10-26T05:07:25.794Z,11.90
2022-10-26T05:09:52.673Z,11.90
2022-10-26T05:12:19.527Z,11.90
2022-10-26T05:14:46.216Z,11.80
2022-10-26T05:17:13.092Z,11.90
2022-10-26T05:19:39.926Z,11.80
2022-10-26T05:22:06.911Z,11.80
2022-10-26T05:24:33.548Z,11.80
2022-10-26T05:27:00.693Z,11.80
2022-10-26T05:29:27.391Z,11.70
2022-10-26T05:31:54.117Z,11.80
2022-10-26T05:34:20.782Z,11.80
2022-10-26T05:36:47.418Z,11.80
2022-10-26T05:39:14.162Z,11.80
2022-10-26T05:41:40.759Z,11.80
2022-10-26T05:44:07.415Z,11.80
2022-10-26T05:46:34.163Z,11.80
2022-10-26T05:49:00.850Z,11.90
2022-10-26T05:51:27.496Z,11.90
2022-10-26T05:53:56.959Z,11.90
2022-10-26T05:56:40.485Z,11.90
2022-10-26T05:59:17.005Z,11.90
2022-10-26T06:01:49.737Z,11.90
2022-10-26T06:04:30.760Z,11.80
2022-10-26T06:06:58.681Z,11.80
2022-10-26T06:09:25.669Z,11.80
2022-10-26T06:11:52.541Z,11.90
2022-10-26T06:14:19.419Z,11.90
2022-10-26T06:17:11.952Z,11.90
2022-10-26T06:20:00.564Z,11.90
2022-10-26T06:23:03.816Z,12.00
2022-10-26T06:25:33.264Z,11.90
2022-10-26T06:28:18.369Z,11.90
2022-10-26T06:30:45.193Z,12.00
2022-10-26T06:33:24.724Z,12.00
2022-10-26T06:36:22.240Z,12.00
2022-10-26T06:38:54.165Z,12.00
2022-10-26T06:41:22.192Z,12.00
2022-10-26T06:43:49.241Z,12.00
2022-10-26T06:46:43.706Z,12.10
2022-10-26T06:49:25.637Z,12.10
2022-10-26T06:52:07.606Z,12.10
2022-10-26T06:54:46.602Z,12.10
2022-10-26T06:57:15.526Z,12.10
2022-10-26T06:59:52.326Z,12.10
2022-10-26T07:02:19.907Z,12.20
2022-10-26T07:04:46.804Z,12.20
2022-10-26T07:07:20.704Z,12.20
2022-10-26T07:09:47.949Z,12.20
2022-10-26T07:12:14.637Z,12.20
2022-10-26T07:14:41.539Z,12.30
2022-10-26T07:17:09.716Z,12.30
2022-10-26T07:19:36.423Z,12.30
2022-10-26T07:22:03.597Z,12.30
2022-10-26T07:24:30.978Z,12.40
2022-10-26T07:26:58.738Z,12.40
2022-10-26T07:29:26.730Z,12.50
2022-10-26T07:34:25.349Z,12.50
2022-10-26T07:36:52.230Z,12.60
2022-10-26T07:39:18.956Z,12.60
2022-10-26T07:41:46.374Z,12.70
2022-10-26T07:44:13.071Z,12.70
2022-10-26T07:46:39.708Z,12.80
2022-10-26T07:49:06.485Z,12.80
2022-10-26T07:51:33.141Z,12.90
2022-10-26T07:53:59.736Z,12.90
2022-10-26T07:56:26.985Z,12.90
2022-10-26T07:58:54.570Z,12.90
2022-10-26T08:01:21.518Z,13.00
2022-10-26T08:03:48.298Z,13.00
2022-10-26T08:06:15.076Z,13.00
2022-10-26T08:08:44.970Z,13.00
2022-10-26T08:11:15.105Z,13.10
2022-10-26T08:13:41.894Z,13.10
2022-10-26T08:16:09.200Z,13.20
2022-10-26T08:18:35.868Z,13.20
2022-10-26T08:21:10.885Z,13.20
2022-10-26T08:23:39.264Z,13.20
2022-10-26T08:26:06.303Z,13.30
2022-10-26T08:28:32.933Z,13.40
2022-10-26T08:30:59.789Z,13.50
2022-10-26T08:33:26.642Z,13.40
2022-10-26T08:35:58.000Z,13.50
2022-10-26T08:38:25.030Z,13.60
2022-10-26T08:40:53.014Z,13.60
2022-10-26T08:43:30.501Z,13.60
2022-10-26T08:46:09.318Z,13.50
2022-10-26T08:48:39.790Z,13.60
2022-10-26T08:51:13.185Z,13.70
2022-10-26T08:53:57.217Z,13.70
2022-10-26T08:56:33.866Z,13.80
2022-10-26T08:59:26.838Z,13.80
2022-10-26T09:01:54.305Z,13.70
2022-10-26T09:04:26.304Z,13.80
2022-10-26T09:07:01.279Z,13.80
2022-10-26T09:09:42.093Z,13.80
2022-10-26T09:12:23.688Z,13.80
2022-10-26T09:15:00.832Z,13.90
2022-10-26T09:17:27.459Z,13.90
2022-10-26T09:20:18.255Z,14.00
2022-10-26T09:22:54.117Z,14.00
2022-10-26T09:25:23.721Z,14.10
2022-10-26T09:27:57.525Z,14.20
2022-10-26T09:30:24.456Z,14.30
2022-10-26T09:33:05.146Z,14.60
2022-10-26T09:35:45.810Z,14.70
2022-10-26T09:38:36.733Z,15.30
2022-10-26T09:41:22.463Z,15.90
2022-10-26T09:44:05.836Z,16.50
2022-10-26T09:46:52.955Z,16.90
2022-10-26T09:49:26.539Z,17.20
2022-10-26T09:51:53.186Z,17.30
2022-10-26T09:54:21.678Z,17.00
2022-10-26T09:56:53.183Z,17.20
2022-10-26T09:59:23.252Z,17.10
2022-10-26T10:01:50.135Z,17.00
2022-10-26T10:04:26.174Z,17.10
2022-10-26T10:07:02.921Z,16.90
2022-10-26T10:09:30.008Z,17.00
2022-10-26T10:11:59.407Z,17.10
2022-10-26T10:14:28.536Z,17.30
2022-10-26T10:16:59.965Z,17.00
2022-10-26T10:19:32.153Z,16.70
2022-10-26T10:22:01.119Z,16.30
2022-10-26T10:24:33.237Z,16.00
2022-10-26T10:27:17.834Z,16.00
2022-10-26T10:29:52.950Z,15.80
2022-10-26T10:32:25.722Z,16.20
2022-10-26T10:34:57.091Z,16.40
2022-10-26T10:37:46.936Z,16.40
2022-10-26T10:40:25.776Z,16.40
2022-10-26T10:42:55.593Z,16.50
2022-10-26T10:45:22.186Z,16.50
2022-10-26T10:48:20.448Z,16.60
2022-10-26T10:50:59.768Z,16.70
2022-10-26T10:53:44.521Z,16.70
2022-10-26T10:56:29.101Z,16.90
2022-10-26T10:59:14.419Z,17.30
2022-10-26T11:02:01.015Z,17.40
2022-10-26T11:04:51.867Z,17.40
2022-10-26T11:07:19.644Z,17.60
2022-10-26T11:09:48.713Z,17.60
2022-10-26T11:12:25.454Z,17.80
2022-10-26T11:15:18.490Z,17.80
2022-10-26T11:17:59.858Z,17.90
2022-10-26T11:20:29.970Z,17.70
2022-10-26T11:26:18.333Z,17.50
2022-10-26T11:28:47.907Z,17.60
2022-10-26T11:31:17.647Z,17.40
2022-10-26T11:33:59.010Z,17.30
2022-10-26T11:36:30.279Z,17.10
2022-10-26T11:39:34.291Z,17.20
2022-10-26T11:42:11.586Z,17.20
2022-10-26T11:44:48.048Z,17.20
2022-10-26T11:47:24.474Z,17.40
2022-10-26T11:49:58.868Z,17.40
2022-10-26T11:52:32.738Z,17.40
2022-10-26T11:55:04.658Z,17.20
2022-10-26T11:57:36.691Z,17.00
2022-10-26T12:00:03.576Z,16.90
2022-10-26T12:02:32.339Z,16.90
2022-10-26T12:05:27.415Z,16.80
2022-10-26T12:07:58.907Z,16.90
2022-10-26T12:10:33.436Z,16.80
2022-10-26T12:13:33.620Z,16.90
2022-10-26T12:16:18.082Z,16.90
2022-10-26T12:18:57.316Z,17.00
2022-10-26T12:21:29.172Z,17.00
2022-10-26T12:24:15.767Z,17.00
2022-10-26T12:26:54.791Z,17.10
2022-10-26T12:29:32.452Z,17.30
2022-10-26T12:31:59.543Z,17.50
2022-10-26T12:34:32.420Z,17.60
2022-10-26T12:36:59.028Z,17.60
2022-10-26T12:39:29.930Z,17.50
2022-10-26T12:42:16.809Z,17.60
2022-10-26T12:44:45.475Z,17.70
2022-10-26T12:47:30.780Z,17.70
2022-10-26T12:50:06.536Z,17.80
2022-10-26T12:52:41.558Z,17.60
2022-10-26T12:55:33.463Z,17.50
2022-10-26T12:58:19.893Z,17.50
2022-10-26T13:00:57.852Z,17.60
2022-10-26T13:03:46.676Z,17.60
2022-10-26T13:06:37.771Z,17.40
2022-10-26T13:09:17.604Z,17.40
2022-10-26T13:11:49.794Z,17.30
2022-10-26T13:14:23.993Z,17.20
2022-10-26T13:16:50.841Z,17.20
2022-10-26T13:19:49.144Z,17.10
2022-10-26T13:22:20.046Z,17.00
2022-10-26T13:24:54.692Z,17.00
2022-10-26T13:27:40.376Z,17.10
2022-10-26T13:30:10.101Z,17.10
2022-10-26T13:32:40.179Z,17.30
2022-10-26T13:35:13.423Z,17.30
2022-10-26T13:37:47.235Z,17.40
2022-10-26T13:40:18.570Z,17.40
2022-10-26T13:42:47.920Z,17.40
2022-10-26T13:45:30.414Z,17.50
2022-10-26T13:48:10.199Z,17.40
2022-10-26T13:50:47.608Z,17.30
2022-10-26T13:53:18.227Z,17.20
2022-10-26T13:56:00.754Z,17.20
2022-10-26T13:58:45.823Z,17.20
2022-10-26T14:01:21.396Z,17.20
2022-10-26T14:03:49.710Z,17.20
2022-10-26T14:06:36.767Z,17.30
2022-10-26T14:09:15.847Z,17.30
2022-10-26T14:11:48.257Z,17.30
2022-10-26T14:14:21.557Z,17.30
2022-10-26T14:16:50.095Z,17.20
2022-10-26T14:19:27.828Z,17.30
2022-10-26T14:21:55.094Z,17.30
2022-10-26T14:24:45.762Z,17.30
2022-10-26T14:27:21.750Z,17.30
2022-10-26T14:32:39.315Z,17.30
2022-10-26T14:35:06.231Z,17.30
2022-10-26T14:37:48.701Z,17.30
2022-10-26T14:40:36.176Z,17.30
2022-10-26T14:43:05.704Z,17.20
2022-10-26T14:45:50.247Z,17.20
2022-10-26T14:48:34.744Z,17.20
2022-10-26T14:51:15.567Z,17.10
2022-10-26T14:53:49.161Z,17.10
2022-10-26T14:56:25.539Z,17.10
2022-10-26T14:58:53.641Z,17.10
2022-10-26T15:01:23.325Z,17.10
2022-10-26T15:03:58.267Z,17.10
2022-10-26T15:06:27.894Z,17.10
2022-10-26T15:08:57.367Z,17.10
2022-10-26T15:11:24.511Z,17.10
2022-10-26T15:13:51.362Z,17.10
2022-10-26T15:16:24.378Z,17.10
2022-10-26T15:19:01.008Z,17.10
2022-10-26T15:21:31.547Z,17.00
2022-10-26T15:23:58.902Z,17.00
2022-10-26T15:26:25.883Z,16.90
2022-10-26T15:28:53.505Z,16.80
2022-10-26T15:31:20.101Z,16.80
2022-10-26T15:33:52.416Z,16.70
2022-10-26T15:36:27.515Z,16.70
2022-10-26T15:38:55.619Z,16.60
2022-10-26T15:41:25.019Z,16.60
2022-10-26T15:43:56.545Z,16.50
2022-10-26T15:46:24.472Z,16.40
2022-10-26T15:48:56.596Z,16.30
2022-10-26T15:51:23.574Z,16.20
2022-10-26T15:53:50.349Z,16.20
2022-10-26T15:56:23.447Z,16.10
2022-10-26T15:58:50.523Z,16.10
2022-10-26T16:01:19.776Z,15.90
2022-10-26T16:03:47.294Z,15.90
2022-10-26T16:06:33.971Z,15.80
2022-10-26T16:09:02.687Z,15.70
2022-10-26T16:11:29.865Z,15.70
2022-10-26T16:13:59.531Z,15.70
2022-10-26T16:16:29.442Z,15.60
2022-10-26T16:19:11.868Z,15.60
2022-10-26T16:21:43.793Z,15.40
2022-10-26T16:24:11.819Z,15.40
2022-10-26T16:26:38.520Z,15.30
2022-10-26T16:29:05.182Z,15.30
2022-10-26T16:31:31.769Z,15.20
2022-10-26T16:34:01.671Z,15.20
2022-10-26T16:36:32.821Z,15.10
2022-10-26T16:38:59.689Z,15.10
2022-10-26T16:41:26.368Z,15.00
2022-10-26T16:43:53.032Z,15.00
2022-10-26T16:46:21.194Z,14.90
2022-10-26T16:48:49.471Z,14.80
2022-10-26T16:51:27.055Z,14.80
2022-10-26T16:53:56.568Z,14.70
2022-10-26T16:56:28.722Z,14.70
2022-10-26T16:58:56.697Z,14.70
2022-10-26T17:01:23.797Z,14.60
2022-10-26T17:03:51.909Z,14.50
2022-10-26T17:06:19.178Z,14.50
2022-10-26T17:08:46.225Z,14.40
2022-10-26T17:11:19.016Z,14.40
2022-10-26T17:13:46.502Z,14.30
2022-10-26T17:16:14.935Z,14.30
2022-10-26T17:18:42.744Z,14.20
2022-10-26T17:21:11.218Z,14.20
2022-10-26T17:23:38.444Z,14.10
2022-10-26T17:26:07.829Z,14.20
2022-10-26T17:28:35.115Z,14.20
2022-10-26T17:31:13.356Z,14.10
2022-10-26T17:33:42.848Z,14.10
2022-10-26T17:36:10.982Z,14.00
2022-10-26T17:38:40.205Z,14.00
2022-10-26T17:41:12.262Z,14.00
2022-10-26T17:43:40.564Z,14.00
2022-10-26T17:46:13.203Z,13.90
2022-10-26T17:48:40.041Z,13.90
2022-10-26T17:51:14.555Z,13.80
2022-10-26T17:53:41.315Z,13.80
2022-10-26T17:56:14.664Z,13.70
2022-10-26T17:58:41.442Z,13.70
2022-10-26T18:01:10.499Z,13.70
2022-10-26T18:03:38.644Z,13.70
2022-10-26T18:06:09.150Z,13.50
2022-10-26T18:08:37.496Z,13.50
2022-10-26T18:11:05.599Z,13.50
2022-10-26T18:13:33.957Z,13.50
2022-10-26T18:16:05.247Z,13.50
2022-10-26T18:18:32.860Z,13.50
2022-10-26T18:21:09.367Z,13.40
2022-10-26T18:23:36.635Z,13.40
2022-10-26T18:26:11.358Z,13.40
2022-10-26T18:28:40.050Z,13.40
2022-10-26T18:31:09.015Z,13.40
2022-10-26T18:33:35.859Z,13.30
2022-10-26T18:36:13.551Z,13.30
2022-10-26T18:38:40.249Z,13.20
2022-10-26T18:41:08.207Z,13.20
2022-10-26T18:43:39.083Z,13.30
2022-10-26T18:46:08.190Z,13.30
2022-10-26T18:48:35.225Z,13.20
2022-10-26T18:51:03.973Z,13.20
2022-10-26T18:53:35.741Z,13.10
2022-10-26T18:56:04.590Z,13.10
2022-10-26T18:58:33.181Z,13.10
2022-10-26T19:01:18.919Z,13.10
2022-10-26T19:03:47.340Z,13.10
2022-10-26T19:06:19.610Z,13.10
2022-10-26T19:08:46.813Z,13.10
2022-10-26T19:11:16.371Z,13.10
2022-10-26T19:13:43.733Z,13.20
2022-10-26T19:16:17.420Z,13.20
2022-10-26T19:19:00.672Z,13.20
2022-10-26T19:21:29.270Z,13.20
2022-10-26T19:23:58.643Z,13.10
2022-10-26T19:26:33.176Z,13.00
2022-10-26T19:29:05.951Z,13.00
2022-10-26T19:31:33.706Z,12.90
2022-10-26T19:34:01.376Z,12.90
2022-10-26T19:36:29.432Z,12.90
2022-10-26T19:38:56.700Z,12.90
2022-10-26T19:41:26.555Z,12.80
2022-10-26T19:43:54.989Z,12.80
2022-10-26T19:46:24.340Z,12.80
2022-10-26T19:48:59.735Z,12.80
2022-10-26T19:51:28.010Z,12.80
2022-10-26T19:53:57.893Z,12.80
2022-10-26T19:56:27.338Z,12.80
2022-10-26T19:58:54.173Z,12.70
2022-10-26T20:01:20.917Z,12.80
2022-10-26T20:03:47.744Z,12.70
2022-10-26T20:06:15.475Z,12.70
2022-10-26T20:08:44.249Z,12.70
2022-10-26T20:11:14.697Z,12.70
2022-10-26T20:13:43.726Z,12.70
2022-10-26T20:16:10.725Z,12.80
2022-10-26T20:18:37.518Z,12.80
2022-10-26T20:21:11.468Z,12.70
2022-10-26T20:23:38.142Z,12.70
2022-10-26T20:28:32.805Z,12.60
2022-10-26T20:30:59.473Z,12.60
2022-10-26T20:33:27.066Z,12.60
2022-10-26T20:36:00.094Z,12.70
2022-10-26T20:38:27.228Z,12.70
2022-10-26T20:40:56.548Z,12.80
2022-10-26T20:43:23.768Z,12.90
2022-10-26T20:45:51.100Z,13.00
2022-10-26T20:48:18.407Z,13.00
2022-10-26T20:50:52.719Z,13.10
2022-10-26T20:53:34.598Z,13.00
2022-10-26T20:56:05.668Z,13.00
2022-10-26T20:58:45.371Z,13.00
2022-10-26T21:01:18.668Z,13.00
2022-10-26T21:03:45.447Z,12.90
2022-10-26T21:06:12.224Z,13.00
2022-10-26T21:08:38.897Z,13.10
2022-10-26T21:11:05.839Z,13.10
2022-10-26T21:13:32.593Z,13.10
2022-10-26T21:16:02.893Z,13.10
2022-10-26T21:18:29.645Z,13.10
2022-10-26T21:21:00.243Z,13.20
2022-10-26T21:23:34.586Z,13.10
2022-10-26T21:26:01.602Z,13.20
2022-10-26T21:28:34.618Z,13.00
2022-10-26T21:31:06.900Z,12.90
2022-10-26T21:33:33.656Z,12.80
2022-10-26T21:36:01.622Z,12.70
2022-10-26T21:38:29.559Z,12.70
2022-10-26T21:41:08.159Z,12.70
2022-10-26T21:43:36.188Z,12.80
2022-10-26T21:46:04.045Z,12.70
2022-10-26T21:48:32.428Z,12.70
2022-10-26T21:51:02.196Z,12.70
2022-10-26T21:53:29.281Z,12.60
2022-10-26T21:56:11.069Z,12.70
2022-10-26T21:58:38.439Z,12.70
2022-10-26T22:01:10.061Z,12.80
2022-10-26T22:03:37.528Z,12.80
2022-10-26T22:06:05.783Z,12.80
2022-10-26T22:08:33.378Z,12.90
2022-10-26T22:11:07.835Z,13.00
2022-10-26T22:13:35.341Z,13.00
2022-10-26T22:16:10.175Z,12.90
2022-10-26T22:18:42.854Z,12.70
2022-10-26T22:21:10.403Z,12.60
2022-10-26T22:23:39.177Z,12.50
2022-10-26T22:26:12.099Z,12.50
2022-10-26T22:28:42.650Z,12.40
2022-10-26T22:31:15.549Z,12.40
2022-10-26T22:33:42.581Z,12.40
2022-10-26T22:36:14.784Z,12.40
2022-10-26T22:38:41.973Z,12.40
2022-10-26T22:41:09.451Z,12.40
2022-10-26T22:43:36.332Z,12.30
2022-10-26T22:46:08.658Z,12.30
2022-10-26T22:48:35.705Z,12.30
2022-10-26T22:51:09.595Z,12.30
2022-10-26T22:53:36.845Z,12.20
2022-10-26T22:56:05.343Z,12.20
2022-10-26T22:58:32.052Z,12.10
2022-10-26T23:01:07.242Z,12.20
2022-10-26T23:03:34.818Z,12.10
2022-10-26T23:06:02.241Z,12.20
2022-10-26T23:08:29.190Z,12.20
2022-10-26T23:11:05.146Z,12.10
2022-10-26T23:13:31.811Z,12.10
2022-10-26T23:16:05.887Z,12.10
2022-10-26T23:18:33.224Z,12.10
2022-10-26T23:21:00.093Z,12.00
2022-10-26T23:23:27.361Z,12.00
2022-10-26T23:25:54.162Z,12.00
2022-10-26T23:28:20.899Z,11.90
2022-10-26T23:30:47.895Z,11.90
2022-10-26T23:33:14.828Z,12.00
2022-10-26T23:35:41.661Z,11.90
2022-10-26T23:40:39.933Z,11.90
2022-10-26T23:43:06.690Z,11.90
2022-10-26T23:45:33.277Z,11.90
2022-10-26T23:47:59.977Z,11.80
2022-10-26T23:50:26.574Z,11.80
2022-10-26T23:52:53.191Z,11.80
2022-10-26T23:55:19.808Z,11.90
2022-10-26T23:57:46.554Z,11.80
